createdAt,value
2023-05-22T00:01:06.843Z,15.54
2023-05-22T00:02:43.178Z,15.53
2023-05-22T00:04:21.202Z,15.53
2023-05-22T00:05:53.372Z,15.38
2023-05-22T00:07:25.131Z,15.05
2023-05-22T00:08:57.323Z,15.27
2023-05-22T00:10:29.034Z,15.34
2023-05-22T00:12:00.728Z,15.29
2023-05-22T00:13:32.539Z,15.33
2023-05-22T00:15:04.825Z,14.96
2023-05-22T00:16:36.675Z,15.24
2023-05-22T00:18:09.789Z,15.43
2023-05-22T00:19:41.536Z,15.48
2023-05-22T00:21:13.237Z,15.26
2023-05-22T00:22:45.055Z,15.28
2023-05-22T00:24:16.783Z,15.27
2023-05-22T00:25:48.535Z,15.33
2023-05-22T00:27:20.281Z,15.43
2023-05-22T00:28:52.012Z,15.45
2023-05-22T00:30:23.688Z,15.45
2023-05-22T00:31:55.488Z,15.24
2023-05-22T00:33:28.561Z,15.29
2023-05-22T00:35:00.302Z,15.21
2023-05-22T00:36:32.044Z,15.20
2023-05-22T00:38:03.846Z,14.99
2023-05-22T00:39:35.638Z,14.94
2023-05-22T00:41:07.527Z,14.86
2023-05-22T00:42:39.279Z,14.84
2023-05-22T00:44:12.043Z,14.72
2023-05-22T00:45:44.008Z,14.87
2023-05-22T00:47:15.725Z,14.77
2023-05-22T00:48:49.277Z,14.94
2023-05-22T00:50:20.928Z,14.81
2023-05-22T00:51:52.757Z,14.80
2023-05-22T00:53:24.733Z,14.89
2023-05-22T00:54:56.403Z,15.00
2023-05-22T00:56:29.088Z,14.82
2023-05-22T00:58:01.190Z,14.75
2023-05-22T00:59:32.855Z,14.42
2023-05-22T01:01:07.778Z,14.49
2023-05-22T01:02:39.810Z,14.53
2023-05-22T01:04:13.101Z,14.63
2023-05-22T01:05:45.358Z,14.60
2023-05-22T01:07:17.970Z,14.45
2023-05-22T01:08:49.675Z,14.28
2023-05-22T01:10:21.464Z,14.31
2023-05-22T01:11:57.121Z,14.41
2023-05-22T01:13:30.016Z,14.66
2023-05-22T01:15:05.040Z,14.57
2023-05-22T01:16:39.682Z,14.23
2023-05-22T01:18:19.549Z,14.51
2023-05-22T01:20:01.619Z,14.61
2023-05-22T01:21:37.309Z,14.66
2023-05-22T01:23:24.459Z,14.50
2023-05-22T01:25:06.307Z,14.60
2023-05-22T01:27:10.617Z,14.62
2023-05-22T01:28:49.279Z,14.36
2023-05-22T01:30:48.400Z,14.04
2023-05-22T01:32:21.664Z,14.10
2023-05-22T01:33:55.585Z,13.77
2023-05-22T01:35:27.334Z,14.10
2023-05-22T01:36:59.008Z,13.95
2023-05-22T01:38:30.774Z,14.25
2023-05-22T01:40:02.511Z,14.18
2023-05-22T01:41:34.191Z,14.30
2023-05-22T01:43:05.935Z,14.17
2023-05-22T01:44:37.633Z,14.21
2023-05-22T01:46:10.726Z,14.18
2023-05-22T01:47:42.521Z,13.99
2023-05-22T01:49:14.231Z,13.96
2023-05-22T01:50:46.613Z,14.02
2023-05-22T01:52:22.653Z,13.86
2023-05-22T01:53:57.291Z,13.91
2023-05-22T01:55:30.884Z,14.09
2023-05-22T01:57:05.837Z,14.02
2023-05-22T01:58:40.033Z,14.09
2023-05-22T02:00:14.221Z,14.18
2023-05-22T02:01:47.379Z,14.04
2023-05-22T02:03:20.021Z,14.08
2023-05-22T02:04:53.417Z,13.99
2023-05-22T02:06:25.893Z,14.08
2023-05-22T02:07:58.249Z,14.25
2023-05-22T02:09:31.198Z,14.22
2023-05-22T02:11:02.947Z,14.44
2023-05-22T02:12:34.661Z,14.41
2023-05-22T02:14:06.652Z,14.50
2023-05-22T02:15:38.455Z,14.44
2023-05-22T02:17:11.586Z,14.33
2023-05-22T02:18:43.651Z,14.21
2023-05-22T02:20:16.195Z,14.30
2023-05-22T02:21:47.889Z,14.32
2023-05-22T02:23:19.569Z,14.35
2023-05-22T02:24:51.523Z,14.06
2023-05-22T02:26:23.303Z,14.27
2023-05-22T02:27:54.965Z,14.17
2023-05-22T02:29:26.658Z,14.04
2023-05-22T02:30:58.361Z,14.26
2023-05-22T02:32:31.529Z,14.16
2023-05-22T02:34:05.392Z,14.26
2023-05-22T02:35:37.089Z,14.02
2023-05-22T02:37:08.911Z,13.99
2023-05-22T02:38:40.680Z,14.01
2023-05-22T02:40:12.690Z,14.10
2023-05-22T02:41:44.388Z,13.93
2023-05-22T02:43:16.094Z,14.04
2023-05-22T02:44:47.773Z,14.10
2023-05-22T02:46:19.507Z,14.08
2023-05-22T02:47:52.739Z,13.87
2023-05-22T02:49:24.470Z,13.82
2023-05-22T02:50:56.166Z,13.91
2023-05-22T02:52:28.434Z,13.67
2023-05-22T02:54:00.243Z,13.96
2023-05-22T02:55:32.042Z,14.12
2023-05-22T02:57:04.147Z,14.01
2023-05-22T02:58:35.967Z,13.92
2023-05-22T03:00:11.618Z,14.02
2023-05-22T03:01:44.459Z,13.97
2023-05-22T03:03:18.153Z,13.98
2023-05-22T03:04:50.108Z,13.97
2023-05-22T03:06:22.012Z,13.91
2023-05-22T03:07:53.699Z,13.68
2023-05-22T03:09:25.768Z,13.89
2023-05-22T03:10:57.915Z,13.96
2023-05-22T03:12:29.731Z,14.04
2023-05-22T03:14:01.562Z,14.04
2023-05-22T03:15:33.299Z,14.16
2023-05-22T03:17:05.455Z,14.12
2023-05-22T03:18:38.705Z,14.06
2023-05-22T03:20:11.195Z,13.99
2023-05-22T03:21:46.021Z,13.91
2023-05-22T03:23:18.033Z,14.00
2023-05-22T03:24:49.737Z,13.96
2023-05-22T03:26:22.096Z,13.88
2023-05-22T03:27:53.753Z,13.70
2023-05-22T03:29:25.544Z,13.72
2023-05-22T03:30:57.299Z,13.63
2023-05-22T03:32:29.039Z,13.47
2023-05-22T03:34:03.121Z,13.16
2023-05-22T03:35:34.991Z,13.28
2023-05-22T03:37:06.758Z,13.55
2023-05-22T03:38:38.577Z,13.70
2023-05-22T03:40:10.957Z,13.59
2023-05-22T03:41:42.840Z,13.73
2023-05-22T03:43:14.516Z,13.76
2023-05-22T03:44:46.296Z,13.64
2023-05-22T03:46:18.308Z,13.59
2023-05-22T03:47:50.082Z,13.58
2023-05-22T03:49:23.177Z,13.41
2023-05-22T03:50:55.364Z,13.18
2023-05-22T03:52:27.051Z,13.03
2023-05-22T03:54:01.863Z,13.26
2023-05-22T03:55:33.682Z,13.37
2023-05-22T03:57:05.810Z,13.44
2023-05-22T03:58:37.578Z,13.32
2023-05-22T04:00:12.594Z,13.38
2023-05-22T04:01:46.663Z,13.47
2023-05-22T04:03:19.845Z,13.49
2023-05-22T04:04:53.265Z,13.43
2023-05-22T04:06:25.667Z,13.56
2023-05-22T04:07:57.423Z,13.48
2023-05-22T04:09:33.059Z,13.52
2023-05-22T04:11:05.623Z,13.44
2023-05-22T04:12:37.284Z,13.55
2023-05-22T04:14:09.106Z,13.43
2023-05-22T04:15:45.909Z,13.54
2023-05-22T04:17:24.972Z,13.40
2023-05-22T04:18:56.749Z,13.43
2023-05-22T04:20:29.941Z,13.46
2023-05-22T04:22:01.697Z,13.54
2023-05-22T04:23:33.382Z,13.54
2023-05-22T04:25:06.603Z,13.39
2023-05-22T04:26:39.896Z,13.38
2023-05-22T04:28:13.070Z,13.38
2023-05-22T04:29:45.237Z,13.38
2023-05-22T04:31:17.022Z,13.45
2023-05-22T04:32:48.891Z,13.44
2023-05-22T04:34:21.906Z,13.49
2023-05-22T04:35:55.414Z,13.51
2023-05-22T04:37:28.766Z,13.54
2023-05-22T04:39:00.513Z,13.50
2023-05-22T04:40:33.767Z,13.57
2023-05-22T04:42:06.166Z,13.58
2023-05-22T04:43:38.731Z,13.60
2023-05-22T04:45:11.442Z,13.60
2023-05-22T04:46:43.859Z,13.61
2023-05-22T04:48:16.365Z,13.73
2023-05-22T04:49:48.248Z,13.74
2023-05-22T04:51:23.055Z,13.76
2023-05-22T04:52:54.699Z,13.71
2023-05-22T04:54:26.337Z,13.75
2023-05-22T04:55:57.981Z,13.71
2023-05-22T04:57:29.687Z,13.71
2023-05-22T04:59:01.320Z,13.65
2023-05-22T05:00:33.352Z,13.68
2023-05-22T05:02:05.369Z,13.70
2023-05-22T05:03:37.132Z,13.58
2023-05-22T05:05:09.392Z,13.73
2023-05-22T05:06:43.214Z,13.80
2023-05-22T05:08:16.546Z,13.70
2023-05-22T05:09:48.197Z,13.83
2023-05-22T05:11:19.831Z,13.84
2023-05-22T05:12:51.665Z,13.86
2023-05-22T05:14:25.330Z,13.89
2023-05-22T05:15:58.992Z,13.99
2023-05-22T05:17:30.880Z,14.04
2023-05-22T05:19:04.010Z,14.03
2023-05-22T05:20:36.077Z,14.14
2023-05-22T05:22:09.243Z,14.17
2023-05-22T05:23:41.250Z,14.22
2023-05-22T05:25:12.981Z,14.22
2023-05-22T05:26:44.697Z,14.29
2023-05-22T05:28:16.336Z,14.32
2023-05-22T05:29:47.979Z,14.36
2023-05-22T05:31:20.643Z,14.41
2023-05-22T05:32:52.475Z,14.44
2023-05-22T05:34:24.214Z,14.47
2023-05-22T05:35:55.861Z,14.53
2023-05-22T05:37:28.939Z,14.60
2023-05-22T05:39:00.659Z,14.60
2023-05-22T05:40:34.478Z,14.70
2023-05-22T05:42:06.446Z,14.77
2023-05-22T05:43:38.179Z,14.78
2023-05-22T05:45:11.416Z,14.81
2023-05-22T05:46:46.227Z,14.93
2023-05-22T05:48:18.304Z,15.02
2023-05-22T05:49:50.018Z,15.08
2023-05-22T05:51:22.175Z,14.99
2023-05-22T05:52:55.301Z,15.02
2023-05-22T05:54:27.177Z,15.23
2023-05-22T05:56:00.138Z,15.22
2023-05-22T05:57:31.840Z,15.21
2023-05-22T05:59:04.112Z,15.20
2023-05-22T06:00:39.125Z,15.15
2023-05-22T06:02:14.347Z,15.28
2023-05-22T06:03:46.486Z,15.27
2023-05-22T06:05:19.422Z,15.35
2023-05-22T06:06:53.319Z,15.49
2023-05-22T06:08:26.354Z,15.61
2023-05-22T06:09:58.424Z,15.63
2023-05-22T06:11:30.385Z,15.64
2023-05-22T06:13:02.110Z,15.68
2023-05-22T06:14:33.733Z,15.74
2023-05-22T06:16:06.842Z,15.62
2023-05-22T06:17:38.820Z,15.69
2023-05-22T06:19:10.769Z,15.70
2023-05-22T06:21:11.931Z,15.84
2023-05-22T06:22:45.619Z,15.97
2023-05-22T06:24:17.271Z,16.01
2023-05-22T06:25:48.907Z,15.94
2023-05-22T06:27:22.575Z,15.97
2023-05-22T06:28:54.531Z,15.92
2023-05-22T06:30:38.873Z,15.91
2023-05-22T06:32:11.615Z,15.98
2023-05-22T06:33:43.720Z,16.01
2023-05-22T06:35:15.824Z,16.00
2023-05-22T06:36:52.109Z,16.10
2023-05-22T06:38:27.205Z,16.10
2023-05-22T06:40:01.216Z,16.17
2023-05-22T06:41:33.685Z,16.18
2023-05-22T06:43:05.484Z,16.19
2023-05-22T06:44:37.108Z,16.28
2023-05-22T06:46:08.974Z,16.22
2023-05-22T06:47:40.681Z,16.31
2023-05-22T06:49:12.854Z,16.54
2023-05-22T06:50:44.483Z,16.48
2023-05-22T06:52:18.775Z,16.46
2023-05-22T06:53:50.411Z,16.53
2023-05-22T06:55:22.483Z,16.60
2023-05-22T06:56:54.222Z,16.74
2023-05-22T06:58:28.856Z,16.70
2023-05-22T07:00:01.237Z,16.62
2023-05-22T07:01:33.330Z,16.62
2023-05-22T07:03:06.881Z,16.72
2023-05-22T07:04:38.695Z,16.71
2023-05-22T07:06:10.566Z,16.70
2023-05-22T07:07:43.944Z,16.85
2023-05-22T07:09:15.811Z,16.95
2023-05-22T07:10:47.792Z,16.99
2023-05-22T07:12:25.857Z,17.07
2023-05-22T07:13:57.472Z,17.12
2023-05-22T07:15:29.096Z,17.33
2023-05-22T07:17:00.820Z,17.20
2023-05-22T07:18:32.470Z,17.17
2023-05-22T07:20:05.463Z,17.14
2023-05-22T07:21:37.281Z,17.27
2023-05-22T07:23:10.277Z,17.46
2023-05-22T07:24:41.992Z,17.39
2023-05-22T07:26:13.656Z,17.57
2023-05-22T07:27:45.564Z,17.56
2023-05-22T07:29:17.181Z,17.50
2023-05-22T07:30:48.919Z,17.70
2023-05-22T07:32:20.612Z,17.79
2023-05-22T07:33:52.496Z,17.55
2023-05-22T07:35:26.349Z,17.40
2023-05-22T07:36:57.982Z,17.68
2023-05-22T07:38:31.074Z,17.80
2023-05-22T07:40:02.876Z,17.64
2023-05-22T07:41:34.605Z,17.64
2023-05-22T07:43:06.321Z,17.80
2023-05-22T07:44:38.025Z,18.06
2023-05-22T07:46:10.863Z,18.04
2023-05-22T07:47:42.596Z,18.02
2023-05-22T07:49:19.388Z,17.81
2023-05-22T07:50:51.261Z,17.83
2023-05-22T07:52:23.907Z,18.00
2023-05-22T07:55:28.587Z,18.19
2023-05-22T07:57:03.418Z,18.11
2023-05-22T07:58:35.147Z,18.13
2023-05-22T08:00:12.824Z,18.23
2023-05-22T08:01:45.471Z,18.35
2023-05-22T08:03:17.538Z,18.26
2023-05-22T08:04:50.439Z,18.48
2023-05-22T08:06:23.817Z,18.38
2023-05-22T08:07:55.607Z,18.27
2023-05-22T08:09:28.593Z,18.53
2023-05-22T08:11:04.061Z,18.70
2023-05-22T08:12:36.253Z,18.68
2023-05-22T08:14:07.953Z,18.51
2023-05-22T08:15:39.646Z,18.38
2023-05-22T08:17:11.608Z,18.61
2023-05-22T08:18:43.550Z,18.64
2023-05-22T08:20:15.430Z,18.98
2023-05-22T08:21:47.292Z,19.12
2023-05-22T08:23:19.409Z,19.34
2023-05-22T08:24:53.841Z,19.42
2023-05-22T08:26:26.056Z,19.40
2023-05-22T08:27:57.686Z,19.08
2023-05-22T08:29:29.360Z,19.37
2023-05-22T08:31:01.060Z,19.66
2023-05-22T08:32:32.766Z,19.42
2023-05-22T08:34:04.985Z,19.32
2023-05-22T08:35:36.654Z,19.43
2023-05-22T08:37:09.442Z,19.53
2023-05-22T08:38:41.122Z,19.34
2023-05-22T08:40:14.629Z,19.21
2023-05-22T08:41:47.627Z,19.77
2023-05-22T08:43:20.067Z,19.68
2023-05-22T08:44:51.739Z,19.83
2023-05-22T08:46:26.203Z,19.97
2023-05-22T08:47:58.080Z,20.29
2023-05-22T08:49:30.183Z,20.33
2023-05-22T08:51:03.246Z,20.48
2023-05-22T08:52:38.914Z,20.25
2023-05-22T08:54:10.609Z,20.32
2023-05-22T08:55:43.798Z,20.31
2023-05-22T08:57:15.469Z,20.33
2023-05-22T08:58:47.217Z,20.04
2023-05-22T09:00:20.110Z,20.06
2023-05-22T09:01:52.456Z,20.29
2023-05-22T09:03:28.676Z,20.17
2023-05-22T09:05:02.076Z,20.50
2023-05-22T09:06:33.824Z,20.77
2023-05-22T09:08:19.190Z,20.98
2023-05-22T09:09:52.921Z,21.17
2023-05-22T09:11:29.026Z,20.88
2023-05-22T09:13:04.453Z,20.91
2023-05-22T09:14:38.932Z,20.99
2023-05-22T09:16:11.742Z,20.82
2023-05-22T09:17:45.929Z,21.40
2023-05-22T09:19:17.731Z,21.27
2023-05-22T09:20:52.923Z,21.41
2023-05-22T09:22:34.947Z,21.59
2023-05-22T09:24:08.128Z,21.29
2023-05-22T09:25:39.895Z,21.12
2023-05-22T09:27:12.891Z,21.28
2023-05-22T09:28:46.781Z,21.60
2023-05-22T09:30:18.603Z,21.73
2023-05-22T09:31:53.246Z,21.30
2023-05-22T09:33:25.122Z,21.40
2023-05-22T09:35:02.274Z,21.40
2023-05-22T09:36:34.184Z,21.49
2023-05-22T09:38:06.423Z,21.51
2023-05-22T09:39:44.300Z,21.59
2023-05-22T09:41:22.206Z,21.83
2023-05-22T09:42:55.217Z,21.25
2023-05-22T09:44:27.021Z,21.31
2023-05-22T09:46:01.005Z,21.38
2023-05-22T09:47:35.871Z,21.86
2023-05-22T09:49:07.542Z,21.54
2023-05-22T09:50:42.331Z,21.60
2023-05-22T09:52:14.444Z,21.33
2023-05-22T09:53:46.685Z,21.57
2023-05-22T09:55:18.807Z,21.52
2023-05-22T09:56:51.001Z,21.66
2023-05-22T09:58:24.693Z,21.77
2023-05-22T09:59:58.493Z,22.06
2023-05-22T10:01:31.135Z,21.97
2023-05-22T10:03:06.909Z,21.41
2023-05-22T10:04:38.662Z,21.69
2023-05-22T10:06:12.184Z,22.02
2023-05-22T10:07:46.554Z,21.82
2023-05-22T10:09:19.674Z,21.99
2023-05-22T10:10:54.817Z,22.19
2023-05-22T10:12:26.525Z,21.95
2023-05-22T10:14:00.769Z,22.67
2023-05-22T10:15:32.539Z,22.83
2023-05-22T10:17:06.665Z,22.88
2023-05-22T10:18:38.364Z,23.26
2023-05-22T10:20:11.183Z,21.80
2023-05-22T10:21:42.798Z,22.41
2023-05-22T10:23:15.230Z,23.18
2023-05-22T10:24:47.168Z,22.92
2023-05-22T10:26:19.193Z,22.97
2023-05-22T10:27:52.250Z,22.64
2023-05-22T10:29:36.533Z,22.84
2023-05-22T10:31:10.136Z,22.92
2023-05-22T10:32:43.262Z,23.13
2023-05-22T10:34:17.984Z,23.19
2023-05-22T10:35:53.306Z,23.37
2023-05-22T10:37:42.105Z,23.63
2023-05-22T10:39:24.209Z,23.18
2023-05-22T10:40:55.825Z,23.39
2023-05-22T10:42:29.779Z,23.50
2023-05-22T10:44:02.391Z,23.45
2023-05-22T10:45:36.583Z,23.38
2023-05-22T10:47:11.249Z,23.59
2023-05-22T10:48:45.675Z,23.74
2023-05-22T10:50:17.620Z,23.65
2023-05-22T10:51:49.299Z,24.03
2023-05-22T10:53:22.983Z,23.88
2023-05-22T10:54:54.654Z,24.31
2023-05-22T10:56:34.359Z,24.44
2023-05-22T10:58:12.941Z,23.93
2023-05-22T10:59:44.756Z,23.94
2023-05-22T11:01:18.611Z,24.13
2023-05-22T11:02:50.350Z,24.51
2023-05-22T11:04:22.541Z,24.26
2023-05-22T11:05:54.529Z,24.55
2023-05-22T11:07:26.225Z,24.16
2023-05-22T11:08:58.054Z,24.19
2023-05-22T11:10:53.916Z,24.58
2023-05-22T11:12:27.432Z,23.97
2023-05-22T11:14:03.146Z,24.02
2023-05-22T11:15:34.936Z,24.54
2023-05-22T11:17:08.085Z,23.46
2023-05-22T11:18:39.931Z,23.77
2023-05-22T11:20:12.893Z,24.46
2023-05-22T11:21:45.780Z,24.40
2023-05-22T11:23:18.226Z,24.62
2023-05-22T11:24:49.977Z,24.80
2023-05-22T11:26:22.662Z,24.67
2023-05-22T11:27:55.053Z,24.27
2023-05-22T11:29:26.767Z,25.06
2023-05-22T11:30:58.532Z,24.76
2023-05-22T11:32:31.645Z,24.63
2023-05-22T11:34:03.373Z,24.73
2023-05-22T11:35:34.978Z,24.61
2023-05-22T11:37:06.582Z,24.64
2023-05-22T11:38:38.360Z,24.28
2023-05-22T11:40:10.807Z,24.30
2023-05-22T11:41:43.355Z,24.40
2023-05-22T11:43:15.034Z,24.67
2023-05-22T11:44:46.720Z,25.00
2023-05-22T11:46:18.358Z,24.93
2023-05-22T11:47:51.485Z,25.04
2023-05-22T11:49:24.068Z,25.31
2023-05-22T11:50:56.532Z,25.78
2023-05-22T11:52:31.413Z,24.94
2023-05-22T11:54:03.171Z,25.09
2023-05-22T11:55:35.034Z,25.41
2023-05-22T11:57:08.127Z,25.66
2023-05-22T11:58:39.841Z,25.85
2023-05-22T12:00:12.377Z,25.07
2023-05-22T12:01:44.055Z,25.32
2023-05-22T12:03:17.652Z,25.10
2023-05-22T12:04:54.056Z,25.90
2023-05-22T12:06:25.909Z,25.40
2023-05-22T12:07:57.709Z,25.30
2023-05-22T12:09:29.409Z,25.20
2023-05-22T12:11:01.156Z,25.37
2023-05-22T12:12:33.064Z,25.12
2023-05-22T12:14:05.153Z,25.32
2023-05-22T12:15:42.589Z,25.55
2023-05-22T12:17:14.658Z,25.59
2023-05-22T12:18:47.924Z,25.77
2023-05-22T12:20:20.109Z,26.44
2023-05-22T12:21:54.525Z,25.59
2023-05-22T12:23:40.145Z,25.83
2023-05-22T12:25:16.456Z,26.47
2023-05-22T12:26:49.628Z,26.12
2023-05-22T12:28:21.260Z,26.27
2023-05-22T12:29:56.044Z,26.58
2023-05-22T12:31:27.675Z,26.43
2023-05-22T12:33:02.143Z,26.21
2023-05-22T12:34:35.558Z,26.55
2023-05-22T12:36:07.727Z,25.88
2023-05-22T12:37:39.347Z,25.72
2023-05-22T12:39:11.817Z,26.54
2023-05-22T12:40:43.464Z,26.49
2023-05-22T12:42:15.180Z,26.42
2023-05-22T12:43:46.804Z,26.30
2023-05-22T12:45:18.761Z,26.24
2023-05-22T12:46:52.177Z,26.13
2023-05-22T12:48:23.906Z,25.82
2023-05-22T12:49:56.866Z,26.30
2023-05-22T12:51:29.802Z,26.26
2023-05-22T12:53:01.549Z,25.80
2023-05-22T12:54:33.164Z,25.76
2023-05-22T12:56:05.888Z,26.31
2023-05-22T12:57:37.681Z,26.02
2023-05-22T12:59:09.297Z,26.04
2023-05-22T13:00:41.234Z,26.65
2023-05-22T13:02:13.070Z,26.69
2023-05-22T13:03:45.652Z,26.71
2023-05-22T13:05:18.775Z,26.20
2023-05-22T13:06:50.562Z,26.31
2023-05-22T13:08:23.554Z,26.30
2023-05-22T13:09:55.196Z,26.25
2023-05-22T13:11:26.918Z,26.00
2023-05-22T13:12:58.548Z,26.34
2023-05-22T13:14:30.239Z,26.27
2023-05-22T13:16:02.062Z,26.58
2023-05-22T13:17:33.887Z,26.84
2023-05-22T13:19:05.669Z,25.61
2023-05-22T13:20:38.712Z,26.10
2023-05-22T13:22:10.429Z,26.46
2023-05-22T13:23:42.257Z,26.88
2023-05-22T13:25:14.054Z,27.00
2023-05-22T13:26:45.770Z,26.49
2023-05-22T13:28:17.374Z,26.57
2023-05-22T13:29:49.073Z,26.47
2023-05-22T13:31:20.845Z,26.00
2023-05-22T13:32:52.727Z,26.65
2023-05-22T13:34:24.728Z,26.71
2023-05-22T13:35:57.882Z,26.71
2023-05-22T13:37:29.535Z,27.07
2023-05-22T13:39:01.178Z,26.89
2023-05-22T13:40:32.793Z,26.69
2023-05-22T13:42:04.934Z,26.52
2023-05-22T13:43:36.583Z,26.54
2023-05-22T13:45:09.476Z,26.85
2023-05-22T13:46:41.269Z,27.11
2023-05-22T13:48:13.149Z,27.29
2023-05-22T13:49:45.348Z,26.29
2023-05-22T13:51:18.460Z,26.22
2023-05-22T13:52:50.156Z,26.40
2023-05-22T13:54:21.812Z,26.78
2023-05-22T13:55:55.085Z,26.73
2023-05-22T13:57:26.824Z,26.81
2023-05-22T13:58:58.510Z,26.74
2023-05-22T14:00:30.262Z,26.65
2023-05-22T14:02:02.003Z,26.50
2023-05-22T14:03:33.861Z,26.66
2023-05-22T14:05:06.212Z,26.69
2023-05-22T14:06:39.320Z,26.53
2023-05-22T14:08:11.081Z,26.43
2023-05-22T14:09:42.749Z,26.45
2023-05-22T14:11:14.404Z,26.63
2023-05-22T14:12:46.228Z,26.51
2023-05-22T14:14:23.699Z,26.59
2023-05-22T14:15:55.419Z,26.57
2023-05-22T14:17:27.092Z,26.80
2023-05-22T14:18:59.299Z,27.01
2023-05-22T14:20:30.951Z,27.21
2023-05-22T14:22:04.193Z,27.03
2023-05-22T14:23:35.899Z,26.71
2023-05-22T14:25:10.838Z,26.65
2023-05-22T14:26:42.505Z,26.53
2023-05-22T14:28:14.277Z,26.55
2023-05-22T14:29:46.001Z,26.23
2023-05-22T14:31:17.746Z,26.51
2023-05-22T14:32:49.630Z,26.49
2023-05-22T14:34:21.384Z,26.34
2023-05-22T14:35:53.077Z,26.39
2023-05-22T14:37:26.033Z,26.30
2023-05-22T14:38:57.681Z,26.19
2023-05-22T14:40:29.354Z,26.37
2023-05-22T14:42:00.993Z,26.77
2023-05-22T14:43:33.469Z,26.99
2023-05-22T14:45:05.929Z,26.78
2023-05-22T14:46:37.620Z,26.68
2023-05-22T14:48:11.029Z,26.63
2023-05-22T14:49:42.873Z,26.49
2023-05-22T14:51:14.548Z,26.62
2023-05-22T14:52:47.703Z,26.50
2023-05-22T14:54:20.040Z,26.50
2023-05-22T14:55:51.755Z,26.69
2023-05-22T14:57:23.522Z,26.72
2023-05-22T14:58:55.235Z,26.71
2023-05-22T15:00:26.903Z,26.55
2023-05-22T15:01:58.643Z,26.37
2023-05-22T15:03:30.396Z,26.39
2023-05-22T15:05:02.062Z,26.37
2023-05-22T15:06:33.744Z,26.43
2023-05-22T15:08:06.733Z,26.64
2023-05-22T15:09:38.420Z,26.07
2023-05-22T15:11:10.054Z,25.95
2023-05-22T15:12:41.720Z,26.28
2023-05-22T15:14:13.425Z,26.41
2023-05-22T15:15:45.183Z,26.27
2023-05-22T15:17:16.826Z,26.41
2023-05-22T15:18:48.512Z,26.54
2023-05-22T15:20:20.384Z,26.61
2023-05-22T15:21:52.091Z,26.56
2023-05-22T15:23:26.494Z,26.59
2023-05-22T15:25:05.453Z,26.64
2023-05-22T15:26:37.088Z,26.60
2023-05-22T15:28:08.721Z,26.52
2023-05-22T15:29:40.625Z,26.33
2023-05-22T15:31:13.238Z,26.17
2023-05-22T15:32:45.066Z,26.32
2023-05-22T15:34:16.817Z,25.81
2023-05-22T15:35:48.583Z,25.70
2023-05-22T15:37:20.384Z,25.51
2023-05-22T15:38:53.409Z,25.82
2023-05-22T15:40:25.140Z,25.86
2023-05-22T15:42:05.667Z,25.68
2023-05-22T15:43:37.894Z,25.61
2023-05-22T15:45:09.847Z,25.88
2023-05-22T15:46:41.455Z,25.76
2023-05-22T15:48:13.125Z,25.78
2023-05-22T15:49:44.784Z,25.93
2023-05-22T15:51:16.380Z,25.98
2023-05-22T15:52:48.004Z,25.84
2023-05-22T15:54:20.966Z,25.69
2023-05-22T15:55:52.560Z,25.61
2023-05-22T15:57:24.268Z,25.47
2023-05-22T15:58:56.061Z,25.63
2023-05-22T16:00:27.731Z,25.73
2023-05-22T16:01:59.364Z,25.73
2023-05-22T16:03:31.073Z,25.51
2023-05-22T16:05:02.901Z,25.62
2023-05-22T16:06:34.608Z,25.08
2023-05-22T16:08:12.267Z,25.01
2023-05-22T16:09:45.290Z,24.69
2023-05-22T16:11:16.901Z,24.75
2023-05-22T16:12:48.752Z,25.10
2023-05-22T16:14:20.406Z,24.96
2023-05-22T16:15:52.058Z,24.97
2023-05-22T16:17:23.710Z,24.91
2023-05-22T16:18:55.388Z,24.65
2023-05-22T16:20:27.102Z,24.61
2023-05-22T16:21:58.945Z,24.73
2023-05-22T16:23:30.662Z,24.64
2023-05-22T16:25:04.083Z,24.45
2023-05-22T16:26:37.874Z,24.51
2023-05-22T16:28:10.981Z,24.58
2023-05-22T16:29:42.714Z,24.45
2023-05-22T16:31:18.912Z,24.32
2023-05-22T16:32:50.996Z,24.45
2023-05-22T16:34:22.697Z,24.43
2023-05-22T16:35:54.464Z,24.37
2023-05-22T16:37:26.254Z,24.42
2023-05-22T16:38:57.916Z,24.36
2023-05-22T16:40:31.138Z,24.28
2023-05-22T16:42:02.900Z,24.21
2023-05-22T16:43:34.565Z,24.25
2023-05-22T16:45:07.238Z,24.07
2023-05-22T16:46:39.090Z,24.18
2023-05-22T16:48:11.235Z,24.18
2023-05-22T16:49:42.972Z,24.06
2023-05-22T16:51:14.582Z,23.85
2023-05-22T16:52:46.231Z,23.93
2023-05-22T16:54:17.924Z,23.85
2023-05-22T16:55:51.238Z,23.61
2023-05-22T16:57:23.187Z,23.67
2023-05-22T16:58:54.836Z,23.46
2023-05-22T17:00:26.491Z,23.56
2023-05-22T17:01:58.252Z,23.47
2023-05-22T17:03:30.005Z,23.19
2023-05-22T17:05:01.822Z,23.38
2023-05-22T17:06:33.594Z,23.31
2023-05-22T17:08:05.579Z,23.21
2023-05-22T17:09:37.176Z,23.27
2023-05-22T17:11:10.164Z,23.15
2023-05-22T17:12:41.905Z,23.10
2023-05-22T17:14:13.624Z,23.18
2023-05-22T17:15:45.640Z,23.15
2023-05-22T17:17:17.269Z,23.34
2023-05-22T17:18:48.894Z,23.15
2023-05-22T17:20:22.063Z,23.04
2023-05-22T17:21:53.746Z,23.11
2023-05-22T17:23:25.802Z,23.08
2023-05-22T17:24:57.437Z,22.89
2023-05-22T17:26:30.515Z,22.87
2023-05-22T17:28:02.312Z,22.89
2023-05-22T17:29:34.071Z,22.93
2023-05-22T17:31:06.364Z,22.83
2023-05-22T17:32:38.039Z,22.88
2023-05-22T17:34:09.721Z,22.87
2023-05-22T17:35:41.782Z,22.91
2023-05-22T17:37:13.410Z,22.80
2023-05-22T17:38:45.098Z,22.88
2023-05-22T17:40:17.322Z,22.76
2023-05-22T17:41:51.320Z,22.74
2023-05-22T17:43:23.001Z,22.75
2023-05-22T17:44:54.632Z,22.57
2023-05-22T17:46:26.975Z,22.44
2023-05-22T17:47:58.684Z,22.64
2023-05-22T17:49:30.373Z,22.63
2023-05-22T17:51:02.154Z,22.59
2023-05-22T17:52:33.807Z,22.50
2023-05-22T17:54:06.134Z,22.55
2023-05-22T17:55:37.773Z,22.50
2023-05-22T17:57:11.156Z,22.49
2023-05-22T17:58:42.860Z,22.55
2023-05-22T18:00:16.154Z,22.32
2023-05-22T18:01:47.969Z,22.41
2023-05-22T18:03:20.525Z,22.33
2023-05-22T18:04:52.795Z,22.20
2023-05-22T18:06:24.588Z,22.04
2023-05-22T18:07:56.279Z,21.99
2023-05-22T18:09:27.909Z,22.02
2023-05-22T18:10:59.624Z,21.96
2023-05-22T18:12:32.632Z,21.87
2023-05-22T18:14:04.616Z,21.85
2023-05-22T18:15:36.357Z,22.00
2023-05-22T18:17:08.128Z,21.98
2023-05-22T18:18:39.760Z,22.09
2023-05-22T18:20:16.654Z,22.04
2023-05-22T18:21:48.371Z,21.97
2023-05-22T18:23:20.628Z,21.95
2023-05-22T18:24:52.261Z,21.80
2023-05-22T18:26:23.897Z,21.80
2023-05-22T18:27:56.944Z,21.80
2023-05-22T18:29:28.577Z,21.84
2023-05-22T18:31:01.354Z,21.82
2023-05-22T18:32:33.249Z,21.56
2023-05-22T18:34:05.001Z,21.40
2023-05-22T18:35:36.642Z,21.59
2023-05-22T18:37:08.268Z,21.62
2023-05-22T18:38:39.941Z,21.47
2023-05-22T18:40:12.747Z,21.43
2023-05-22T18:41:44.363Z,21.46
2023-05-22T18:43:17.477Z,21.30
2023-05-22T18:44:49.591Z,21.20
2023-05-22T18:46:21.313Z,21.36
2023-05-22T18:47:53.379Z,21.17
2023-05-22T18:49:25.466Z,21.31
2023-05-22T18:50:57.859Z,21.35
2023-05-22T18:52:29.838Z,21.35
2023-05-22T18:54:01.571Z,21.36
2023-05-22T18:55:33.227Z,21.26
2023-05-22T18:57:05.094Z,21.09
2023-05-22T18:58:41.271Z,21.26
2023-05-22T19:00:13.221Z,21.19
2023-05-22T19:01:45.002Z,21.12
2023-05-22T19:03:16.733Z,21.00
2023-05-22T19:04:49.012Z,20.87
2023-05-22T19:06:20.822Z,20.95
2023-05-22T19:07:52.465Z,21.00
2023-05-22T19:09:24.685Z,20.94
2023-05-22T19:10:57.508Z,20.61
2023-05-22T19:12:31.803Z,20.38
2023-05-22T19:14:04.799Z,20.39
2023-05-22T19:15:37.668Z,20.55
2023-05-22T19:17:09.924Z,20.53
2023-05-22T19:18:41.710Z,20.33
2023-05-22T19:20:13.377Z,20.20
2023-05-22T19:21:45.033Z,20.31
2023-05-22T19:23:19.226Z,20.19
2023-05-22T19:24:51.188Z,19.94
2023-05-22T19:26:22.895Z,19.96
2023-05-22T19:27:54.584Z,19.83
2023-05-22T19:29:27.544Z,20.03
2023-05-22T19:31:00.131Z,20.10
2023-05-22T19:32:32.240Z,20.06
2023-05-22T19:34:04.047Z,20.24
2023-05-22T19:35:35.732Z,20.28
2023-05-22T19:37:07.690Z,20.05
2023-05-22T19:38:39.442Z,20.10
2023-05-22T19:40:11.378Z,19.99
2023-05-22T19:41:43.305Z,19.52
2023-05-22T19:43:14.957Z,19.56
2023-05-22T19:44:48.029Z,19.75
2023-05-22T19:46:19.671Z,19.82
2023-05-22T19:47:51.424Z,19.91
2023-05-22T19:49:23.133Z,19.95
2023-05-22T19:50:54.745Z,19.71
2023-05-22T19:52:29.103Z,19.74
2023-05-22T19:54:00.836Z,19.79
2023-05-22T19:55:32.669Z,19.68
2023-05-22T19:57:04.507Z,19.31